createdAt,value
2022-08-21T00:01:46.446Z,100542.84
2022-08-21T00:04:21.009Z,100539.72
2022-08-21T00:06:54.047Z,100546.38
2022-08-21T00:09:22.063Z,100544.84
2022-08-21T00:11:49.723Z,100541.47
2022-08-21T00:14:18.016Z,100541.72
2022-08-21T00:16:45.780Z,100533.41
2022-08-21T00:19:13.736Z,100538.41
2022-08-21T00:21:44.586Z,100538.53
2022-08-21T00:24:13.218Z,100531.94
2022-08-21T00:26:40.894Z,100536.41
2022-08-21T00:29:08.480Z,100535.84
2022-08-21T00:31:37.081Z,100534.19
2022-08-21T00:34:05.198Z,100522.31
2022-08-21T00:36:32.920Z,100524.84
2022-08-21T00:39:00.579Z,100533.31
2022-08-21T00:41:37.791Z,100522.06
2022-08-21T00:44:09.697Z,100513.28
2022-08-21T00:46:39.892Z,100517.53
2022-08-21T00:49:09.494Z,100518.66
2022-08-21T00:51:42.000Z,100516.84
2022-08-21T00:54:16.917Z,100524.88
2022-08-21T00:56:51.207Z,100515.28
2022-08-21T00:59:21.454Z,100513.47
2022-08-21T01:01:50.604Z,100517.56
2022-08-21T01:04:18.663Z,100521.81
2022-08-21T01:06:46.767Z,100520.81
2022-08-21T01:09:16.216Z,100530.69
2022-08-21T01:11:45.368Z,100521.09
2022-08-21T01:14:15.531Z,100518.72
2022-08-21T01:16:47.268Z,100519.28
2022-08-21T01:19:18.029Z,100522.66
2022-08-21T01:21:45.664Z,100513.34
2022-08-21T01:24:14.064Z,100512.22
2022-08-21T01:26:43.299Z,100508.28
2022-08-21T01:29:21.017Z,100500.66
2022-08-21T01:31:48.888Z,100505.47
2022-08-21T01:34:17.145Z,100501.38
2022-08-21T01:36:46.769Z,100498.84
2022-08-21T01:39:15.578Z,100505.19
2022-08-21T01:41:43.968Z,100496.44
2022-08-21T01:44:12.381Z,100496.44
2022-08-21T01:46:40.174Z,100502.50
2022-08-21T01:49:08.065Z,100490.53
2022-08-21T01:51:35.973Z,100508.00
2022-08-21T01:54:03.645Z,100508.44
2022-08-21T01:56:40.723Z,100507.59
2022-08-21T01:59:08.751Z,100517.44
2022-08-21T02:01:36.907Z,100517.16
2022-08-21T02:04:04.640Z,100520.69
2022-08-21T02:06:32.650Z,100520.41
2022-08-21T02:09:00.337Z,100517.03
2022-08-21T02:11:28.553Z,100525.06
2022-08-21T02:13:56.278Z,100516.31
2022-08-21T02:16:24.073Z,100516.72
2022-08-21T02:18:52.165Z,100520.66
2022-08-21T02:21:21.133Z,100529.53
2022-08-21T02:23:49.028Z,100533.22
2022-08-21T02:26:16.785Z,100530.69
2022-08-21T02:28:44.859Z,100532.50
2022-08-21T02:31:12.840Z,100532.38
2022-08-21T02:33:40.934Z,100537.88
2022-08-21T02:36:10.197Z,100534.50
2022-08-21T02:38:40.439Z,100534.72
2022-08-21T02:41:17.753Z,100543.88
2022-08-21T02:43:45.561Z,100547.13
2022-08-21T02:46:15.879Z,100545.81
2022-08-21T02:48:44.157Z,100548.25
2022-08-21T02:51:14.767Z,100548.50
2022-08-21T02:53:43.046Z,100545.81
2022-08-21T02:56:13.931Z,100545.13
2022-08-21T02:58:47.067Z,100544.81
2022-08-21T03:01:15.528Z,100550.63
2022-08-21T03:03:45.976Z,100551.19
2022-08-21T03:06:16.109Z,100560.06
2022-08-21T03:08:46.128Z,100546.66
2022-08-21T03:11:15.059Z,100551.31
2022-08-21T03:13:44.476Z,100554.16
2022-08-21T03:16:12.342Z,100558.09
2022-08-21T03:18:40.282Z,100556.97
2022-08-21T03:21:08.101Z,100564.16
2022-08-21T03:23:35.866Z,100564.84
2022-08-21T03:26:03.920Z,100573.88
2022-08-21T03:28:31.689Z,100572.75
2022-08-21T03:30:59.625Z,100571.06
2022-08-21T03:33:28.473Z,100570.91
2022-08-21T03:36:02.867Z,100574.19
2022-08-21T03:38:32.759Z,100572.75
2022-08-21T03:41:01.169Z,100571.13
2022-08-21T03:43:31.067Z,100565.00
2022-08-21T03:46:04.487Z,100562.78
2022-08-21T03:48:33.070Z,100572.50
2022-08-21T03:51:00.871Z,100576.28
2022-08-21T03:53:28.967Z,100567.69
2022-08-21T03:55:57.217Z,100571.66
2022-08-21T03:58:27.660Z,100573.19
2022-08-21T04:00:58.848Z,100572.88
2022-08-21T04:03:28.296Z,100571.34
2022-08-21T04:05:56.147Z,100571.91
2022-08-21T04:08:23.861Z,100567.41
2022-08-21T04:10:54.993Z,100568.38
2022-08-21T04:13:24.070Z,100567.41
2022-08-21T04:15:52.265Z,100573.81
2022-08-21T04:18:20.061Z,100584.38
2022-08-21T04:20:51.550Z,100581.00
2022-08-21T04:23:23.865Z,100582.44
2022-08-21T04:25:53.781Z,100582.69
2022-08-21T04:28:28.939Z,100575.94
2022-08-21T04:30:58.283Z,100575.38
2022-08-21T04:33:26.745Z,100567.94
2022-08-21T04:35:54.447Z,100572.28
2022-08-21T04:38:22.830Z,100565.66
2022-08-21T04:40:51.322Z,100576.53
2022-08-21T04:43:19.546Z,100576.38
2022-08-21T04:45:50.242Z,100574.69
2022-08-21T04:48:21.023Z,100576.53
2022-08-21T04:50:58.889Z,100572.00
2022-08-21T04:53:29.611Z,100568.06
2022-08-21T04:56:01.403Z,100565.38
2022-08-21T04:58:30.190Z,100572.00
2022-08-21T05:00:59.708Z,100569.91
2022-08-21T05:03:28.572Z,100569.19
2022-08-21T05:05:56.320Z,100570.03
2022-08-21T05:08:26.553Z,100565.09
2022-08-21T05:10:59.665Z,100568.19
2022-08-21T05:13:29.217Z,100568.06
2022-08-21T05:15:57.282Z,100571.72
2022-08-21T05:18:25.452Z,100560.69
2022-08-21T05:20:53.119Z,100559.59
2022-08-21T05:23:20.934Z,100549.56
2022-08-21T05:25:48.817Z,100543.78
2022-08-21T05:28:16.460Z,100541.09
2022-08-21T05:30:44.437Z,100545.88
2022-08-21T05:33:13.135Z,100548.28
2022-08-21T05:35:41.747Z,100547.84
2022-08-21T05:38:16.653Z,100545.41
2022-08-21T05:40:47.368Z,100548.91
2022-08-21T05:43:16.356Z,100539.97
2022-08-21T05:45:44.602Z,100541.09
2022-08-21T05:48:18.420Z,100540.50
2022-08-21T05:50:47.938Z,100537.84
2022-08-21T05:53:17.611Z,100541.22
2022-08-21T05:55:47.005Z,100539.09
2022-08-21T05:58:15.605Z,100529.44
2022-08-21T06:00:44.449Z,100543.84
2022-08-21T06:03:18.684Z,100550.53
2022-08-21T06:05:46.943Z,100542.19
2022-08-21T06:08:17.262Z,100554.03
2022-08-21T06:10:45.946Z,100547.16
2022-08-21T06:13:16.027Z,100544.34
2022-08-21T06:15:44.116Z,100549.41
2022-08-21T06:18:12.596Z,100553.47
2022-08-21T06:20:41.437Z,100551.56
2022-08-21T06:23:09.297Z,100545.72
2022-08-21T06:25:37.265Z,100535.38
2022-08-21T06:28:07.829Z,100547.19
2022-08-21T06:30:37.180Z,100554.94
2022-08-21T06:35:32.755Z,100548.59
2022-08-21T06:38:00.563Z,100538.28
2022-08-21T06:40:30.240Z,100542.41
2022-08-21T06:42:59.649Z,100527.31
2022-08-21T06:45:32.248Z,100531.34
2022-08-21T06:48:00.791Z,100534.75
2022-08-21T06:50:29.776Z,100533.94
2022-08-21T06:53:07.474Z,100527.84
2022-08-21T06:55:35.420Z,100527.56
2022-08-21T06:58:04.380Z,100520.38
2022-08-21T07:00:33.813Z,100521.75
2022-08-21T07:03:01.873Z,100516.41
2022-08-21T07:05:31.312Z,100508.50
2022-08-21T07:07:59.737Z,100511.19
2022-08-21T07:10:28.367Z,100511.25
2022-08-21T07:13:00.249Z,100498.94
2022-08-21T07:15:30.877Z,100508.91
2022-08-21T07:18:01.588Z,100508.22
2022-08-21T07:20:30.836Z,100507.03
2022-08-21T07:23:02.261Z,100505.00
2022-08-21T07:25:30.732Z,100506.16
2022-08-21T07:27:58.824Z,100510.22
2022-08-21T07:30:27.448Z,100516.25
2022-08-21T07:32:55.868Z,100506.84
2022-08-21T07:35:24.828Z,100508.31
2022-08-21T07:37:52.975Z,100504.59
2022-08-21T07:40:21.021Z,100494.38
2022-08-21T07:42:52.374Z,100493.47
2022-08-21T07:45:25.377Z,100496.97
2022-08-21T07:47:57.315Z,100492.19
2022-08-21T07:50:25.611Z,100489.69
2022-08-21T07:52:54.395Z,100489.09
2022-08-21T07:55:23.035Z,100488.84
2022-08-21T07:57:50.979Z,100486.00
2022-08-21T08:00:22.392Z,100485.28
2022-08-21T08:02:53.215Z,100479.63
2022-08-21T08:05:24.812Z,100480.31
2022-08-21T08:07:52.610Z,100482.88
2022-08-21T08:10:20.444Z,100478.31
2022-08-21T08:12:48.576Z,100483.34
2022-08-21T08:15:19.861Z,100479.63
2022-08-21T08:17:48.941Z,100469.97
2022-08-21T08:20:19.310Z,100476.38
2022-08-21T08:22:59.572Z,100466.41
2022-08-21T08:25:28.520Z,100470.81
2022-08-21T08:28:16.470Z,100463.94
2022-08-21T08:30:46.958Z,100473.41
2022-08-21T08:33:16.175Z,100463.41
2022-08-21T08:35:46.446Z,100467.34
2022-08-21T08:38:19.754Z,100469.47
2022-08-21T08:40:54.927Z,100466.41
2022-08-21T08:43:22.857Z,100465.03
2022-08-21T08:45:56.685Z,100469.28
2022-08-21T08:48:36.416Z,100470.75
2022-08-21T08:51:08.536Z,100463.59
2022-08-21T08:54:03.773Z,100474.81
2022-08-21T08:56:34.724Z,100463.31
2022-08-21T08:59:21.056Z,100464.19
2022-08-21T09:01:48.832Z,100468.47
2022-08-21T09:04:26.747Z,100467.78
2022-08-21T09:07:12.140Z,100467.81
2022-08-21T09:10:13.476Z,100464.53
2022-08-21T09:13:03.538Z,100477.75
2022-08-21T09:15:37.330Z,100475.09
2022-08-21T09:18:23.124Z,100477.31
2022-08-21T09:21:03.604Z,100476.22
2022-08-21T09:23:39.625Z,100482.41
2022-08-21T09:26:17.636Z,100486.03
2022-08-21T09:28:47.374Z,100490.69
2022-08-21T09:31:32.219Z,100493.03
2022-08-21T09:34:09.328Z,100492.53
2022-08-21T09:36:49.424Z,100492.16
2022-08-21T09:39:29.750Z,100488.66
2022-08-21T09:42:00.556Z,100477.38
2022-08-21T09:44:31.219Z,100479.13
2022-08-21T09:46:58.939Z,100475.88
2022-08-21T09:49:53.061Z,100476.22
2022-08-21T09:52:23.302Z,100467.63
2022-08-21T09:54:56.485Z,100468.16
2022-08-21T09:57:39.461Z,100462.53
2022-08-21T10:00:26.948Z,100457.50
2022-08-21T10:02:54.823Z,100457.53
2022-08-21T10:05:25.792Z,100449.03
2022-08-21T10:07:53.922Z,100447.28
2022-08-21T10:10:27.281Z,100448.34
2022-08-21T10:13:18.911Z,100443.00
2022-08-21T10:16:05.519Z,100431.59
2022-08-21T10:18:33.890Z,100433.00
2022-08-21T10:21:12.231Z,100430.81
2022-08-21T10:23:48.949Z,100422.41
2022-08-21T10:26:50.373Z,100422.66
2022-08-21T10:29:39.219Z,100414.00
2022-08-21T10:32:10.902Z,100412.38
2022-08-21T10:34:55.949Z,100408.28
2022-08-21T10:37:45.040Z,100406.78
2022-08-21T10:40:40.342Z,100394.53
2022-08-21T10:43:46.705Z,100400.53
2022-08-21T10:46:25.281Z,100409.19
2022-08-21T10:49:00.383Z,100419.53
2022-08-21T10:51:43.300Z,100420.16
2022-08-21T10:54:20.282Z,100425.59
2022-08-21T10:56:57.751Z,100426.63
2022-08-21T10:59:33.256Z,100417.50
2022-08-21T11:02:27.757Z,100425.94
2022-08-21T11:04:58.857Z,100426.66
2022-08-21T11:07:45.084Z,100421.25
2022-08-21T11:10:22.622Z,100422.34
2022-08-21T11:13:04.081Z,100421.13
2022-08-21T11:15:45.027Z,100419.22
2022-08-21T11:18:32.193Z,100424.34
2022-08-21T11:21:05.987Z,100419.56
2022-08-21T11:23:46.559Z,100420.75
2022-08-21T11:26:53.470Z,100414.09
2022-08-21T11:29:37.736Z,100415.03
2022-08-21T11:32:31.545Z,100409.59
2022-08-21T11:35:08.208Z,100418.56
2022-08-21T11:37:57.944Z,100414.78
2022-08-21T11:40:33.236Z,100421.94
2022-08-21T11:43:25.480Z,100420.69
2022-08-21T11:45:56.752Z,100422.19
2022-08-21T11:48:36.279Z,100415.69
2022-08-21T11:51:17.510Z,100412.38
2022-08-21T11:54:07.275Z,100415.69
2022-08-21T11:56:43.247Z,100418.44
2022-08-21T11:59:15.285Z,100411.56
2022-08-21T12:01:46.341Z,100418.44
2022-08-21T12:04:28.240Z,100412.00
2022-08-21T12:07:11.614Z,100407.06
2022-08-21T12:09:39.611Z,100402.03
2022-08-21T12:12:13.453Z,100398.13
2022-08-21T12:14:48.865Z,100400.63
2022-08-21T12:17:24.982Z,100405.16
2022-08-21T12:20:23.322Z,100415.97
2022-08-21T12:23:03.842Z,100403.94
2022-08-21T12:26:16.696Z,100411.69
2022-08-21T12:28:44.693Z,100405.22
2022-08-21T12:31:27.276Z,100396.19
2022-08-21T12:34:02.263Z,100401.41
2022-08-21T12:37:05.317Z,100396.81
2022-08-21T12:39:37.337Z,100398.94
2022-08-21T12:42:23.684Z,100392.69
2022-08-21T12:44:59.933Z,100393.19
2022-08-21T12:47:52.335Z,100384.28
2022-08-21T12:50:34.053Z,100394.09
2022-08-21T12:53:20.259Z,100386.59
2022-08-21T12:55:49.184Z,100385.53
2022-08-21T12:58:23.052Z,100384.94
2022-08-21T13:00:54.509Z,100382.00
2022-08-21T13:03:24.549Z,100382.81
2022-08-21T13:05:53.801Z,100384.50
2022-08-21T13:08:24.460Z,100388.03
2022-08-21T13:10:59.960Z,100382.59
2022-08-21T13:13:37.504Z,100384.50
2022-08-21T13:16:22.023Z,100380.53
2022-08-21T13:19:09.666Z,100373.63
2022-08-21T13:21:43.978Z,100378.66
2022-08-21T13:24:39.159Z,100379.88
2022-08-21T13:27:20.333Z,100384.31
2022-08-21T13:29:53.741Z,100379.88
2022-08-21T13:32:27.189Z,100379.03
2022-08-21T13:34:55.609Z,100379.47
2022-08-21T13:37:25.648Z,100385.75
2022-08-21T13:39:53.891Z,100376.09
2022-08-21T13:42:21.827Z,100380.47
2022-08-21T13:44:49.588Z,100377.75
2022-08-21T13:47:19.032Z,100384.03
2022-08-21T13:49:49.932Z,100384.25
2022-08-21T13:52:27.423Z,100387.66
2022-08-21T13:55:00.406Z,100383.22
2022-08-21T13:57:34.408Z,100384.91
2022-08-21T14:00:20.421Z,100387.22
2022-08-21T14:02:52.779Z,100383.88
2022-08-21T14:05:28.734Z,100388.88
2022-08-21T14:08:13.468Z,100385.94
2022-08-21T14:10:57.098Z,100382.00
2022-08-21T14:13:48.973Z,100393.09
2022-08-21T14:16:20.807Z,100384.91
2022-08-21T14:19:04.223Z,100384.91
2022-08-21T14:21:40.714Z,100387.78
2022-08-21T14:24:09.216Z,100380.25
2022-08-21T14:26:50.139Z,100385.91
2022-08-21T14:29:19.756Z,100385.28
2022-08-21T14:31:54.959Z,100381.16
2022-08-21T14:34:25.761Z,100385.75
2022-08-21T14:36:53.859Z,100383.88
2022-08-21T14:39:21.872Z,100384.25
2022-08-21T14:41:50.170Z,100381.97
2022-08-21T14:44:20.292Z,100387.81
2022-08-21T14:46:56.286Z,100395.56
2022-08-21T14:49:27.750Z,100382.38
2022-08-21T14:51:58.234Z,100380.31
2022-08-21T14:54:31.661Z,100382.22
2022-08-21T14:57:04.926Z,100388.06
2022-08-21T14:59:34.209Z,100383.88
2022-08-21T15:02:05.300Z,100380.34
2022-08-21T15:04:34.105Z,100386.41
2022-08-21T15:07:02.359Z,100381.59
2022-08-21T15:09:30.097Z,100381.97
2022-08-21T15:12:01.192Z,100382.59
2022-08-21T15:14:31.901Z,100383.84
2022-08-21T15:17:00.767Z,100386.56
2022-08-21T15:19:30.448Z,100387.41
2022-08-21T15:21:58.220Z,100389.34
2022-08-21T15:24:26.483Z,100385.78
2022-08-21T15:26:56.099Z,100378.84
2022-08-21T15:29:23.821Z,100376.34
2022-08-21T15:31:59.626Z,100375.09
2022-08-21T15:34:29.885Z,100381.97
2022-08-21T15:36:58.906Z,100373.41
2022-08-21T15:39:30.183Z,100372.75
2022-08-21T15:42:03.339Z,100368.97
2022-08-21T15:44:41.840Z,100376.88
2022-08-21T15:47:19.356Z,100373.53
2022-08-21T15:49:47.298Z,100383.53
2022-08-21T15:52:19.721Z,100389.06
2022-08-21T15:54:47.807Z,100389.91
2022-08-21T15:57:18.620Z,100393.84
2022-08-21T15:59:51.456Z,100383.91
2022-08-21T16:02:31.508Z,100386.91
2022-08-21T16:04:59.605Z,100384.72
2022-08-21T16:07:27.321Z,100385.50
2022-08-21T16:09:55.218Z,100390.03
2022-08-21T16:12:28.377Z,100384.59
2022-08-21T16:14:56.225Z,100388.19
2022-08-21T16:17:29.465Z,100374.00
2022-08-21T16:19:58.288Z,100383.19
2022-08-21T16:22:26.036Z,100384.38
2022-08-21T16:25:08.027Z,100382.06
2022-08-21T16:27:36.735Z,100386.66
2022-08-21T16:30:07.730Z,100391.34
2022-08-21T16:32:36.269Z,100383.94
2022-08-21T16:35:04.921Z,100387.00
2022-08-21T16:37:32.835Z,100390.19
2022-08-21T16:40:00.513Z,100392.84
2022-08-21T16:42:28.510Z,100390.41
2022-08-21T16:44:57.168Z,100391.34
2022-08-21T16:47:26.713Z,100378.56
2022-08-21T16:49:55.262Z,100384.16
2022-08-21T16:52:22.763Z,100388.44
2022-08-21T16:54:50.577Z,100388.00
2022-08-21T16:57:18.375Z,100396.78
2022-08-21T16:59:46.429Z,100400.31
2022-08-21T17:02:24.957Z,100405.53
2022-08-21T17:04:53.046Z,100403.47
2022-08-21T17:07:20.741Z,100399.47
2022-08-21T17:09:48.405Z,100404.25
2022-08-21T17:12:17.274Z,100407.03
2022-08-21T17:14:44.984Z,100402.00
2022-08-21T17:17:13.293Z,100406.91
2022-08-21T17:19:41.392Z,100406.66
2022-08-21T17:22:10.013Z,100406.66
2022-08-21T17:24:38.276Z,100407.22
2022-08-21T17:27:08.062Z,100403.66
2022-08-21T17:29:38.985Z,100405.53
2022-08-21T17:32:10.957Z,100402.53
2022-08-21T17:34:39.903Z,100405.06
2022-08-21T17:37:07.896Z,100392.25
2022-08-21T17:39:37.272Z,100391.41
2022-08-21T17:42:10.784Z,100398.06
2022-08-21T17:44:41.288Z,100393.03
2022-08-21T17:47:09.839Z,100395.25
2022-08-21T17:49:37.749Z,100397.31
2022-08-21T17:52:05.869Z,100400.00
2022-08-21T17:54:34.871Z,100407.16
2022-08-21T17:57:03.412Z,100397.16
2022-08-21T17:59:31.269Z,100389.06
2022-08-21T18:02:01.753Z,100397.16
2022-08-21T18:04:31.274Z,100396.56
2022-08-21T18:06:58.935Z,100390.31
2022-08-21T18:09:29.419Z,100390.31
2022-08-21T18:11:59.241Z,100388.66
2022-08-21T18:14:34.116Z,100389.69
2022-08-21T18:17:02.374Z,100378.56
2022-08-21T18:19:30.223Z,100378.44
2022-08-21T18:22:01.501Z,100371.56
2022-08-21T18:24:32.289Z,100365.13
2022-08-21T18:27:00.194Z,100369.09
2022-08-21T18:29:27.826Z,100363.34
2022-08-21T18:31:55.805Z,100358.47
2022-08-21T18:34:28.161Z,100363.22
2022-08-21T18:36:56.133Z,100362.19
2022-08-21T18:39:40.055Z,100358.53
2022-08-21T18:42:13.711Z,100355.13
2022-08-21T18:44:45.420Z,100355.84
2022-08-21T18:47:23.111Z,100359.75
2022-08-21T18:49:51.619Z,100357.72
2022-08-21T18:52:20.458Z,100358.06
2022-08-21T18:57:37.466Z,100360.22
2022-08-21T19:00:12.870Z,100356.38
2022-08-21T19:05:29.716Z,100355.84
2022-08-21T19:07:58.886Z,100350.13
2022-08-21T19:10:29.575Z,100346.41
2022-08-21T19:13:00.170Z,100345.47
2022-08-21T19:15:28.828Z,100343.13
2022-08-21T19:17:59.034Z,100342.75
2022-08-21T19:20:30.699Z,100342.75
2022-08-21T19:22:58.600Z,100344.50
2022-08-21T19:25:33.948Z,100343.66
2022-08-21T19:28:10.918Z,100345.88
2022-08-21T19:30:48.000Z,100347.25
2022-08-21T19:33:23.179Z,100335.97
2022-08-21T19:36:10.634Z,100341.25
2022-08-21T19:38:39.463Z,100344.22
2022-08-21T19:41:10.588Z,100341.72
2022-08-21T19:43:44.547Z,100335.84
2022-08-21T19:46:23.806Z,100330.44
2022-08-21T19:48:53.798Z,100327.97
2022-08-21T19:51:21.763Z,100326.94
2022-08-21T19:53:55.816Z,100320.22
2022-08-21T19:56:27.839Z,100323.78
2022-08-21T19:58:57.159Z,100330.53
2022-08-21T20:01:26.902Z,100310.97
2022-08-21T20:03:55.458Z,100321.97
2022-08-21T20:06:26.462Z,100322.69
2022-08-21T20:08:55.352Z,100317.81
2022-08-21T20:11:35.988Z,100324.75
2022-08-21T20:14:06.924Z,100319.00
2022-08-21T20:16:35.908Z,100310.41
2022-08-21T20:19:05.432Z,100311.63
2022-08-21T20:21:43.717Z,100305.38
2022-08-21T20:24:15.119Z,100302.38
2022-08-21T20:26:49.382Z,100304.75
2022-08-21T20:29:24.362Z,100300.56
2022-08-21T20:31:58.433Z,100300.41
2022-08-21T20:34:26.255Z,100304.78
2022-08-21T20:36:54.306Z,100300.78
2022-08-21T20:39:23.923Z,100301.41
2022-08-21T20:41:54.040Z,100306.44
2022-08-21T20:44:27.443Z,100298.06
2022-08-21T20:46:55.287Z,100300.91
2022-08-21T20:49:28.025Z,100301.66
2022-08-21T20:51:58.836Z,100309.59
2022-08-21T20:54:40.661Z,100312.16
2022-08-21T20:57:13.728Z,100316.69
2022-08-21T20:59:53.006Z,100315.00
2022-08-21T21:02:42.492Z,100310.97
2022-08-21T21:05:28.305Z,100314.31
2022-08-21T21:08:01.661Z,100316.00
2022-08-21T21:10:38.863Z,100320.53
2022-08-21T21:13:17.138Z,100316.34
2022-08-21T21:15:48.200Z,100316.53
2022-08-21T21:18:26.732Z,100313.00
2022-08-21T21:21:10.617Z,100305.91
2022-08-21T21:23:47.893Z,100306.91
2022-08-21T21:26:30.273Z,100315.00
2022-08-21T21:29:10.578Z,100315.69
2022-08-21T21:31:38.723Z,100313.69
2022-08-21T21:34:06.875Z,100302.06
2022-08-21T21:40:06.891Z,100313.69
2022-08-21T21:42:53.200Z,100315.03
2022-08-21T21:45:29.360Z,100311.19
2022-08-21T21:48:49.228Z,100317.25
2022-08-21T21:51:42.091Z,100319.13
2022-08-21T21:54:28.740Z,100311.88
2022-08-21T21:57:05.268Z,100309.31
2022-08-21T21:59:59.995Z,100314.41
2022-08-21T22:02:46.562Z,100311.03
2022-08-21T22:05:40.099Z,100308.69
2022-08-21T22:08:15.291Z,100299.94
2022-08-21T22:10:54.461Z,100301.31
2022-08-21T22:13:33.430Z,100298.41
2022-08-21T22:16:07.786Z,100297.09
2022-08-21T22:18:54.786Z,100296.94
2022-08-21T22:21:49.147Z,100302.31
2022-08-21T22:24:22.792Z,100295.25
2022-08-21T22:26:54.789Z,100297.25
2022-08-21T22:29:23.519Z,100297.94
2022-08-21T22:32:07.634Z,100300.81
2022-08-21T22:34:35.614Z,100295.56
2022-08-21T22:37:10.147Z,100293.25
2022-08-21T22:39:45.622Z,100297.63
2022-08-21T22:42:25.962Z,100292.59
2022-08-21T22:45:00.733Z,100301.31
2022-08-21T22:47:41.731Z,100308.41
2022-08-21T22:50:32.576Z,100305.56
2022-08-21T22:53:03.775Z,100297.97
2022-08-21T22:55:44.055Z,100306.34
2022-08-21T22:58:20.254Z,100306.34
2022-08-21T23:00:59.869Z,100317.00
2022-08-21T23:03:34.054Z,100309.09
2022-08-21T23:06:21.684Z,100313.63
2022-08-21T23:08:49.768Z,100298.66
2022-08-21T23:11:23.309Z,100313.63
2022-08-21T23:13:53.686Z,100300.50
2022-08-21T23:16:47.376Z,100312.78
2022-08-21T23:19:54.904Z,100317.34
2022-08-21T23:22:34.788Z,100318.50
2022-08-21T23:25:20.494Z,100314.66
2022-08-21T23:28:04.243Z,100311.97
2022-08-21T23:31:01.994Z,100319.38
2022-08-21T23:33:40.661Z,100323.91
2022-08-21T23:36:29.669Z,100318.50
2022-08-21T23:39:20.367Z,100322.06
2022-08-21T23:42:04.734Z,100319.88
2022-08-21T23:44:47.331Z,100315.97
2022-08-21T23:47:35.158Z,100327.94
2022-08-21T23:50:18.670Z,100319.34
2022-08-21T23:53:09.322Z,100320.88
2022-08-21T23:55:58.261Z,100319.69
2022-08-21T23:59:04.315Z,100317.63
